Alburg, Vermont
Current Conditions -  °F | °C
As of 7:35 PM on Friday 31 Oct 2014 (Local Time) from KFSO Reporting Station
Overcast Overcast  
Wind Chill: 35°   Ceiling: 12000
Heat Index: 40°   Visibility: 10mi
Dew Point: 28°   Wind: 7mph
Humidity: 63%   Direction: 10°N
Pressure: 30.07"   Gusts: NA
Location:  44.9685°N, 73.281°W
Report Text: KFSO 312335Z AUTO 01006KT 10SM OVC120 04/M02 A3007 RMK AO2 T00421023
Loading
Personal Weather Stations






























Interactive Weather Map
Tropical Storm Tracking
New forecast layout! Learn more

10-Day Weather Forecast

Advertisements
Track Severe Weather on mobile